createdAt,value
2023-11-18T00:01:59.022Z,100450.34
2023-11-18T00:04:26.050Z,100458.16
2023-11-18T00:06:53.586Z,100458.97
2023-11-18T00:09:21.017Z,100466.34
2023-11-18T00:11:47.425Z,100465.50
2023-11-18T00:14:14.386Z,100466.56
2023-11-18T00:16:41.157Z,100465.09
2023-11-18T00:19:07.723Z,100479.19
2023-11-18T00:21:34.209Z,100490.75
2023-11-18T00:24:00.637Z,100484.88
2023-11-18T00:26:27.179Z,100480.84
2023-11-18T00:28:53.838Z,100494.31
2023-11-18T00:31:20.344Z,100498.72
2023-11-18T00:33:46.855Z,100494.50
2023-11-18T00:36:13.314Z,100501.69
2023-11-18T00:38:39.772Z,100495.59
2023-11-18T00:41:07.891Z,100511.56
2023-11-18T00:43:34.367Z,100489.06
2023-11-18T00:46:00.858Z,100490.22
2023-11-18T00:48:27.266Z,100504.81
2023-11-18T00:50:53.702Z,100502.94
2023-11-18T00:53:20.240Z,100505.78
2023-11-18T00:55:46.697Z,100511.94
2023-11-18T00:58:13.410Z,100505.88
2023-11-18T01:00:39.979Z,100518.91
2023-11-18T01:03:06.496Z,100513.66
2023-11-18T01:05:32.939Z,100518.91
2023-11-18T01:07:59.517Z,100518.78
2023-11-18T01:10:26.052Z,100532.03
2023-11-18T01:12:52.558Z,100521.41
2023-11-18T01:15:19.050Z,100525.19
2023-11-18T01:17:45.585Z,100515.31
2023-11-18T01:20:14.452Z,100519.81
2023-11-18T01:22:43.167Z,100514.56
2023-11-18T01:25:09.924Z,100526.03
2023-11-18T01:27:36.330Z,100535.50
2023-11-18T01:30:02.781Z,100529.63
2023-11-18T01:32:31.617Z,100532.03
2023-11-18T01:34:58.211Z,100530.53
2023-11-18T01:37:25.654Z,100556.09
2023-11-18T01:39:52.183Z,100554.31
2023-11-18T01:42:18.631Z,100540.34
2023-11-18T01:44:45.268Z,100547.47
2023-11-18T01:47:13.778Z,100541.38
2023-11-18T01:49:42.052Z,100538.84
2023-11-18T01:52:09.454Z,100547.47
2023-11-18T01:54:38.960Z,100543.69
2023-11-18T01:57:07.004Z,100556.81
2023-11-18T01:59:34.853Z,100553.88
2023-11-18T02:02:03.003Z,100575.81
2023-11-18T02:04:30.919Z,100544.84
2023-11-18T02:06:59.163Z,100557.97
2023-11-18T02:09:29.804Z,100559.84
2023-11-18T02:12:10.921Z,100557.22
2023-11-18T02:14:40.991Z,100570.16
2023-11-18T02:17:10.598Z,100559.84
2023-11-18T02:19:40.258Z,100564.19
2023-11-18T02:22:08.505Z,100565.09
2023-11-18T02:24:38.097Z,100557.34
2023-11-18T02:27:12.689Z,100565.75
2023-11-18T02:29:44.833Z,100563.22
2023-11-18T02:32:37.858Z,100579.19
2023-11-18T02:35:18.919Z,100566.81
2023-11-18T02:37:48.358Z,100567.00
2023-11-18T02:40:20.557Z,100573.09
2023-11-18T02:42:49.252Z,100577.41
2023-11-18T02:45:18.394Z,100571.84
2023-11-18T02:47:46.110Z,100563.22
2023-11-18T02:50:12.958Z,100571.00
2023-11-18T02:52:39.753Z,100565.31
2023-11-18T02:55:10.108Z,100563.63
2023-11-18T02:57:37.773Z,100563.84
2023-11-18T03:00:19.028Z,100576.00
2023-11-18T03:02:47.197Z,100578.13
2023-11-18T03:05:13.854Z,100572.75
2023-11-18T03:07:42.299Z,100587.34
2023-11-18T03:10:21.758Z,100588.22
2023-11-18T03:12:51.966Z,100580.03
2023-11-18T03:15:18.453Z,100578.34
2023-11-18T03:17:50.146Z,100590.31
2023-11-18T03:20:18.121Z,100576.63
2023-11-18T03:22:46.074Z,100583.47
2023-11-18T03:25:15.909Z,100583.56
2023-11-18T03:27:42.332Z,100575.78
2023-11-18T03:30:10.030Z,100583.75
2023-11-18T03:32:37.517Z,100582.47
2023-11-18T03:35:10.024Z,100588.13
2023-11-18T03:37:39.960Z,100584.75
2023-11-18T03:40:11.138Z,100584.75
2023-11-18T03:42:38.232Z,100589.16
2023-11-18T03:45:05.564Z,100588.13
2023-11-18T03:47:32.103Z,100596.75
2023-11-18T03:49:58.767Z,100597.81
2023-11-18T03:52:25.307Z,100595.25
2023-11-18T03:54:51.692Z,100600.72
2023-11-18T03:57:18.124Z,100596.28
2023-11-18T03:59:44.538Z,100591.16
2023-11-18T04:02:12.368Z,100590.41
2023-11-18T04:04:39.257Z,100602.78
2023-11-18T04:07:05.697Z,100595.47
2023-11-18T04:09:32.111Z,100598.91
2023-11-18T04:11:59.511Z,100598.09
2023-11-18T04:14:26.855Z,100597.25
2023-11-18T04:16:53.362Z,100606.91
2023-11-18T04:19:19.900Z,100611.41
2023-11-18T04:21:50.177Z,100614.88
2023-11-18T04:24:16.764Z,100613.00
2023-11-18T04:26:43.515Z,100607.47
2023-11-18T04:29:10.062Z,100613.63
2023-11-18T04:31:38.333Z,100607.47
2023-11-18T04:34:07.731Z,100615.13
2023-11-18T04:36:34.166Z,100615.03
2023-11-18T04:39:00.595Z,100610.41
2023-11-18T04:41:27.130Z,100612.84
2023-11-18T04:43:54.528Z,100609.56
2023-11-18T04:46:21.060Z,100615.25
2023-11-18T04:48:47.528Z,100611.78
2023-11-18T04:51:14.074Z,100623.13
2023-11-18T04:53:40.596Z,100620.44
2023-11-18T04:56:11.444Z,100622.00
2023-11-18T04:58:41.327Z,100632.31
2023-11-18T05:01:07.897Z,100629.34
2023-11-18T05:03:34.626Z,100617.16
2023-11-18T05:06:01.237Z,100624.09
2023-11-18T05:08:27.767Z,100629.34
2023-11-18T05:10:55.330Z,100631.97
2023-11-18T05:13:22.935Z,100622.22
2023-11-18T05:15:50.918Z,100629.34
2023-11-18T05:18:17.506Z,100630.72
2023-11-18T05:20:45.114Z,100627.47
2023-11-18T05:23:13.414Z,100641.16
2023-11-18T05:25:46.922Z,100643.03
2023-11-18T05:28:13.517Z,100631.69
2023-11-18T05:30:44.478Z,100644.88
2023-11-18T05:33:16.249Z,100635.53
2023-11-18T05:35:49.795Z,100643.31
2023-11-18T05:38:19.710Z,100639.63
2023-11-18T05:40:57.167Z,100634.38
2023-11-18T05:43:30.832Z,100643.94
2023-11-18T05:46:17.695Z,100639.63
2023-11-18T05:48:45.243Z,100641.50
2023-11-18T05:51:12.547Z,100646.56
2023-11-18T05:53:46.327Z,100639.56
2023-11-18T05:56:13.402Z,100646.19
2023-11-18T05:58:40.502Z,100648.25
2023-11-18T06:01:10.454Z,100643.94
2023-11-18T06:03:40.381Z,100645.09
2023-11-18T06:06:08.312Z,100643.22
2023-11-18T06:08:35.915Z,100641.50
2023-11-18T06:11:13.742Z,100645.28
2023-11-18T06:13:45.439Z,100645.09
2023-11-18T06:16:15.524Z,100655.78
2023-11-18T06:18:45.248Z,100655.03
2023-11-18T06:21:16.037Z,100661.88
2023-11-18T06:23:43.625Z,100663.59
2023-11-18T06:26:12.780Z,100657.38
2023-11-18T06:28:44.588Z,100678.47
2023-11-18T06:31:12.742Z,100675.66
2023-11-18T06:33:46.931Z,100673.22
2023-11-18T06:36:19.674Z,100673.22
2023-11-18T06:38:47.795Z,100671.47
2023-11-18T06:41:16.292Z,100685.81
2023-11-18T06:43:53.147Z,100679.72
2023-11-18T06:46:23.469Z,100672.13
2023-11-18T06:48:50.720Z,100691.66
2023-11-18T06:51:17.745Z,100678.63
2023-11-18T06:53:45.473Z,100684.69
2023-11-18T06:56:11.886Z,100685.72
2023-11-18T06:58:42.150Z,100681.16
2023-11-18T07:01:09.167Z,100679.06
2023-11-18T07:03:35.640Z,100680.97
2023-11-18T07:06:02.231Z,100684.50
2023-11-18T07:08:28.712Z,100682.00
2023-11-18T07:10:55.302Z,100675.78
2023-11-18T07:13:24.153Z,100688.06
2023-11-18T07:15:55.053Z,100686.00
2023-11-18T07:18:23.134Z,100692.19
2023-11-18T07:20:52.350Z,100699.88
2023-11-18T07:23:21.867Z,100698.00
2023-11-18T07:25:48.389Z,100712.25
2023-11-18T07:28:18.256Z,100697.34
2023-11-18T07:30:48.355Z,100701.38
2023-11-18T07:33:15.886Z,100710.38
2023-11-18T07:35:44.161Z,100699.22
2023-11-18T07:38:11.663Z,100705.78
2023-11-18T07:40:43.251Z,100698.19
2023-11-18T07:43:10.128Z,100703.63
2023-11-18T07:45:40.513Z,100699.78
2023-11-18T07:48:08.690Z,100704.06
2023-11-18T07:50:42.163Z,100712.06
2023-11-18T07:53:09.470Z,100718.81
2023-11-18T07:55:35.960Z,100720.66
2023-11-18T07:58:04.980Z,100721.78
2023-11-18T08:00:32.212Z,100718.59
2023-11-18T08:03:01.220Z,100722.25
2023-11-18T08:05:29.276Z,100732.69
2023-11-18T08:07:55.757Z,100728.06
2023-11-18T08:10:23.010Z,100731.72
2023-11-18T08:12:49.577Z,100742.34
2023-11-18T08:15:16.288Z,100745.63
2023-11-18T08:17:42.779Z,100736.50
2023-11-18T08:20:15.356Z,100741.56
2023-11-18T08:22:45.863Z,100742.59
2023-11-18T08:25:14.103Z,100740.72
2023-11-18T08:27:41.761Z,100741.66
2023-11-18T08:30:12.759Z,100748.59
2023-11-18T08:32:40.057Z,100750.72
2023-11-18T08:35:08.791Z,100760.75
2023-11-18T08:37:38.469Z,100771.25
2023-11-18T08:40:22.790Z,100767.03
2023-11-18T08:42:51.804Z,100771.63
2023-11-18T08:45:20.286Z,100766.38
2023-11-18T08:47:47.890Z,100777.81
2023-11-18T08:50:15.870Z,100767.28
2023-11-18T08:52:44.522Z,100785.59
2023-11-18T08:55:18.904Z,100770.28
2023-11-18T09:00:45.583Z,100779.84
2023-11-18T09:03:19.072Z,100773.66
2023-11-18T09:05:57.957Z,100771.34
2023-11-18T09:08:33.113Z,100770.63
2023-11-18T09:11:00.990Z,100773.06
2023-11-18T09:13:29.747Z,100781.47
2023-11-18T09:16:09.811Z,100783.19
2023-11-18T09:18:41.433Z,100784.44
2023-11-18T09:21:15.256Z,100779.75
2023-11-18T09:23:43.264Z,100796.47
2023-11-18T09:26:11.393Z,100794.16
2023-11-18T09:28:38.985Z,100781.97
2023-11-18T09:31:06.787Z,100795.66
2023-11-18T09:33:35.087Z,100786.63
2023-11-18T09:36:03.280Z,100784.53
2023-11-18T09:38:31.895Z,100790.00
2023-11-18T09:41:04.245Z,100784.34
2023-11-18T09:43:43.390Z,100782.66
2023-11-18T09:46:14.547Z,100774.44
2023-11-18T09:48:51.050Z,100794.16
2023-11-18T09:51:26.933Z,100771.31
2023-11-18T09:53:54.256Z,100771.75
2023-11-18T09:56:39.575Z,100769.53
2023-11-18T09:59:16.624Z,100774.06
2023-11-18T10:01:47.884Z,100778.28
2023-11-18T10:04:19.043Z,100778.72
2023-11-18T10:06:48.159Z,100785.56
2023-11-18T10:09:18.661Z,100784.28
2023-11-18T10:11:48.328Z,100778.28
2023-11-18T10:14:16.828Z,100767.97
2023-11-18T10:16:48.106Z,100762.28
2023-11-18T10:19:15.363Z,100767.22
2023-11-18T10:21:41.903Z,100765.25
2023-11-18T10:24:15.418Z,100762.91
2023-11-18T10:26:46.120Z,100782.28
2023-11-18T10:29:14.143Z,100778.06
2023-11-18T10:31:46.403Z,100775.75
2023-11-18T10:34:16.926Z,100772.06
2023-11-18T10:37:00.210Z,100781.25
2023-11-18T10:39:32.258Z,100783.75
2023-11-18T10:42:02.840Z,100781.47
2023-11-18T10:44:30.478Z,100765.13
2023-11-18T10:47:00.771Z,100778.28
2023-11-18T10:49:38.331Z,100773.66
2023-11-18T10:52:09.189Z,100775.88
2023-11-18T10:54:35.653Z,100770.69
2023-11-18T10:57:08.557Z,100764.16
2023-11-18T10:59:35.568Z,100767.53
2023-11-18T11:02:02.817Z,100761.44
2023-11-18T11:04:44.213Z,100756.47
2023-11-18T11:07:12.147Z,100760.88
2023-11-18T11:09:43.104Z,100761.84
2023-11-18T11:12:16.172Z,100766.78
2023-11-18T11:14:58.640Z,100763.84
2023-11-18T11:17:31.243Z,100768.75
2023-11-18T11:20:13.527Z,100764.34
2023-11-18T11:22:49.125Z,100767.59
2023-11-18T11:25:40.989Z,100767.91
2023-11-18T11:28:20.932Z,100773.19
2023-11-18T11:30:56.679Z,100778.94
2023-11-18T11:33:44.124Z,100776.09
2023-11-18T11:36:13.813Z,100770.09
2023-11-18T11:38:40.769Z,100766.00
2023-11-18T11:41:09.644Z,100760.94
2023-11-18T11:43:37.145Z,100763.44
2023-11-18T11:46:11.188Z,100760.94
2023-11-18T11:48:44.035Z,100764.50
2023-11-18T11:51:21.447Z,100754.63
2023-11-18T11:54:19.989Z,100768.13
2023-11-18T11:56:48.478Z,100753.25
2023-11-18T11:59:18.159Z,100742.56
2023-11-18T12:01:48.393Z,100747.84
2023-11-18T12:04:29.189Z,100749.97
2023-11-18T12:07:05.801Z,100738.38
2023-11-18T12:09:39.581Z,100736.91
2023-11-18T12:12:13.534Z,100743.25
2023-11-18T12:15:20.062Z,100732.03
2023-11-18T12:17:52.672Z,100727.59
2023-11-18T12:20:43.859Z,100735.84
2023-11-18T12:23:16.746Z,100728.41
2023-11-18T12:25:44.166Z,100721.44
2023-11-18T12:28:12.724Z,100719.75
2023-11-18T12:30:44.139Z,100722.38
2023-11-18T12:33:11.701Z,100714.94
2023-11-18T12:35:56.192Z,100706.00
2023-11-18T12:39:14.474Z,100710.47
2023-11-18T12:41:41.727Z,100713.63
2023-11-18T12:44:33.013Z,100719.09
2023-11-18T12:47:15.695Z,100712.88
2023-11-18T12:49:43.227Z,100704.75
2023-11-18T12:52:11.491Z,100695.69
2023-11-18T12:54:38.936Z,100691.38
2023-11-18T12:57:08.492Z,100685.44
2023-11-18T12:59:35.401Z,100678.41
2023-11-18T13:02:05.296Z,100680.09
2023-11-18T13:04:32.215Z,100682.63
2023-11-18T13:07:00.960Z,100683.47
2023-11-18T13:09:29.624Z,100676.09
2023-11-18T13:11:58.427Z,100685.38
2023-11-18T13:14:27.400Z,100686.31
2023-11-18T13:16:55.319Z,100683.06
2023-11-18T13:19:29.070Z,100682.41
2023-11-18T13:22:00.222Z,100691.28
2023-11-18T13:24:28.118Z,100676.53
2023-11-18T13:26:58.606Z,100672.19
2023-11-18T13:29:25.577Z,100674.81
2023-11-18T13:31:52.578Z,100676.75
2023-11-18T13:34:20.211Z,100693.78
2023-11-18T13:36:48.515Z,100691.66
2023-11-18T13:39:21.558Z,100689.75
2023-11-18T13:41:51.675Z,100683.63
2023-11-18T13:44:39.111Z,100688.91
2023-11-18T13:47:06.721Z,100683.03
2023-11-18T13:49:35.630Z,100678.09
2023-11-18T13:52:03.013Z,100683.47
2023-11-18T13:54:31.800Z,100693.03
2023-11-18T13:57:04.069Z,100688.94
2023-11-18T13:59:31.220Z,100683.47
2023-11-18T14:01:59.637Z,100687.16
2023-11-18T14:04:30.037Z,100680.31
2023-11-18T14:07:07.056Z,100681.50
2023-11-18T14:09:40.700Z,100671.06
2023-11-18T14:12:08.841Z,100670.22
2023-11-18T14:14:35.661Z,100666.53
2023-11-18T14:17:02.279Z,100663.06
2023-11-18T14:19:30.105Z,100664.97
2023-11-18T14:21:57.019Z,100671.94
2023-11-18T14:24:29.304Z,100683.69
2023-11-18T14:26:55.981Z,100684.66
2023-11-18T14:29:22.486Z,100668.72
2023-11-18T14:31:48.971Z,100675.06
2023-11-18T14:34:15.695Z,100664.88
2023-11-18T14:36:42.780Z,100652.53
2023-11-18T14:39:15.028Z,100656.97
2023-11-18T14:41:41.837Z,100653.59
2023-11-18T14:44:10.676Z,100666.31
2023-11-18T14:46:41.514Z,100666.13
2023-11-18T14:49:08.520Z,100661.19
2023-11-18T14:51:35.163Z,100649.31
2023-11-18T14:54:01.601Z,100655.75
2023-11-18T14:56:28.065Z,100642.06
2023-11-18T14:58:54.801Z,100642.28
2023-11-18T15:01:21.382Z,100629.13
2023-11-18T15:03:47.927Z,100624.81
2023-11-18T15:06:14.576Z,100621.00
2023-11-18T15:08:43.991Z,100626.72
2023-11-18T15:11:16.370Z,100627.56
2023-11-18T15:13:43.106Z,100622.53
2023-11-18T15:16:09.746Z,100628.44
2023-11-18T15:18:36.721Z,100627.91
2023-11-18T15:21:03.343Z,100642.13
2023-11-18T15:23:29.873Z,100640.88
2023-11-18T15:25:57.958Z,100637.91
2023-11-18T15:28:24.637Z,100619.63
2023-11-18T15:30:51.409Z,100613.84
2023-11-18T15:33:17.948Z,100610.66
2023-11-18T15:35:44.668Z,100604.66
2023-11-18T15:38:17.873Z,100594.56
2023-11-18T15:40:44.645Z,100589.31
2023-11-18T15:43:13.194Z,100574.94
2023-11-18T15:45:40.029Z,100575.34
2023-11-18T15:48:08.447Z,100576.28
2023-11-18T15:50:38.490Z,100571.88
2023-11-18T15:53:08.559Z,100588.91
2023-11-18T15:55:37.287Z,100578.81
2023-11-18T15:58:05.703Z,100586.69
2023-11-18T16:00:32.817Z,100583.66
2023-11-18T16:03:02.401Z,100584.28
2023-11-18T16:05:35.852Z,100576.41
2023-11-18T16:08:05.233Z,100588.25
2023-11-18T16:10:32.274Z,100583.19
2023-11-18T16:12:59.630Z,100574.59
2023-11-18T16:15:27.650Z,100561.34
2023-11-18T16:17:56.058Z,100548.50
2023-11-18T16:20:24.209Z,100544.00
2023-11-18T16:22:52.103Z,100532.97
2023-11-18T16:25:24.332Z,100537.38
2023-11-18T16:27:52.970Z,100536.88
2023-11-18T16:30:25.140Z,100532.66
2023-11-18T16:32:55.452Z,100528.53
2023-11-18T16:35:22.218Z,100538.31
2023-11-18T16:37:50.113Z,100534.19
2023-11-18T16:40:17.219Z,100534.19
2023-11-18T16:42:45.256Z,100534.41
2023-11-18T16:45:13.008Z,100539.88
2023-11-18T16:47:40.456Z,100535.56
2023-11-18T16:50:15.476Z,100532.19
2023-11-18T16:52:42.197Z,100529.56
2023-11-18T16:55:10.191Z,100517.41
2023-11-18T16:57:40.279Z,100521.16
2023-11-18T17:00:18.506Z,100524.94
2023-11-18T17:02:46.193Z,100524.31
2023-11-18T17:05:12.845Z,100520.72
2023-11-18T17:07:39.328Z,100527.75
2023-11-18T17:10:12.417Z,100526.81
2023-11-18T17:12:42.523Z,100519.69
2023-11-18T17:15:14.162Z,100527.84
2023-11-18T17:17:46.063Z,100527.56
2023-11-18T17:20:15.618Z,100517.25
2023-11-18T17:22:43.232Z,100517.34
2023-11-18T17:25:13.736Z,100510.75
2023-11-18T17:27:42.028Z,100507.91
2023-11-18T17:30:16.755Z,100504.13
2023-11-18T17:32:44.695Z,100511.38
2023-11-18T17:35:14.779Z,100520.28
2023-11-18T17:37:46.270Z,100520.84
2023-11-18T17:40:13.943Z,100516.72
2023-11-18T17:42:41.366Z,100516.16
2023-11-18T17:45:12.699Z,100499.50
2023-11-18T17:47:42.012Z,100485.00
2023-11-18T17:50:10.469Z,100476.16
2023-11-18T17:52:37.172Z,100471.97
2023-11-18T17:55:04.921Z,100474.50
2023-11-18T17:57:31.635Z,100473.47
2023-11-18T17:59:58.714Z,100473.66
2023-11-18T18:02:25.250Z,100477.22
2023-11-18T18:04:51.838Z,100477.00
2023-11-18T18:07:18.522Z,100471.75
2023-11-18T18:09:47.937Z,100468.41
2023-11-18T18:12:14.495Z,100459.59
2023-11-18T18:14:40.962Z,100451.84
2023-11-18T18:17:07.568Z,100449.31
2023-11-18T18:19:34.022Z,100441.63
2023-11-18T18:22:00.549Z,100444.06
2023-11-18T18:24:26.975Z,100431.97
2023-11-18T18:26:53.474Z,100431.63
2023-11-18T18:29:20.638Z,100427.06
2023-11-18T18:31:47.203Z,100425.34
2023-11-18T18:34:13.646Z,100431.34
2023-11-18T18:36:40.144Z,100424.09
2023-11-18T18:39:07.482Z,100419.47
2023-11-18T18:41:34.124Z,100410.91
2023-11-18T18:44:00.689Z,100409.41
2023-11-18T18:46:28.142Z,100399.84
2023-11-18T18:48:54.606Z,100394.81
2023-11-18T18:51:21.033Z,100386.94
2023-11-18T18:53:47.437Z,100386.75
2023-11-18T18:56:13.942Z,100387.38
2023-11-18T18:58:40.485Z,100387.78
2023-11-18T19:01:10.868Z,100379.81
2023-11-18T19:03:37.708Z,100381.50
2023-11-18T19:06:06.022Z,100383.38
2023-11-18T19:08:32.539Z,100385.06
2023-11-18T19:10:59.115Z,100379.81
2023-11-18T19:13:25.578Z,100376.25
2023-11-18T19:15:53.681Z,100374.56
2023-11-18T19:18:20.251Z,100373.19
2023-11-18T19:20:46.706Z,100372.66
2023-11-18T19:23:13.262Z,100369.53
2023-11-18T19:25:39.824Z,100347.88
2023-11-18T19:28:09.934Z,100342.97
2023-11-18T19:30:37.074Z,100347.25
2023-11-18T19:33:03.597Z,100357.75
2023-11-18T19:35:32.754Z,100359.53
2023-11-18T19:38:02.107Z,100351.47
2023-11-18T19:40:28.720Z,100347.88
2023-11-18T19:42:55.223Z,100340.34
2023-11-18T19:45:22.887Z,100341.59
2023-11-18T19:47:50.427Z,100348.75
2023-11-18T19:52:52.943Z,100329.66
2023-11-18T19:55:19.846Z,100330.38
2023-11-18T19:57:47.793Z,100333.94
2023-11-18T20:00:18.212Z,100334.88
2023-11-18T20:02:46.019Z,100325.34
2023-11-18T20:05:12.822Z,100314.84
2023-11-18T20:07:40.136Z,100316.63
2023-11-18T20:10:09.437Z,100315.56
2023-11-18T20:12:36.282Z,100300.78
2023-11-18T20:15:03.170Z,100294.59
2023-11-18T20:17:29.656Z,100298.16
2023-11-18T20:19:56.173Z,100299.63
2023-11-18T20:22:22.575Z,100297.94
2023-11-18T20:24:49.339Z,100288.28
2023-11-18T20:27:15.744Z,100276.75
2023-11-18T20:29:42.235Z,100283.03
2023-11-18T20:32:09.218Z,100275.09
2023-11-18T20:34:35.875Z,100278.22
2023-11-18T20:37:02.375Z,100291.31
2023-11-18T20:39:28.946Z,100283.47
2023-11-18T20:41:55.486Z,100284.31
2023-11-18T20:44:22.240Z,100288.91
2023-11-18T20:46:49.036Z,100287.03
2023-11-18T20:49:18.314Z,100277.16
2023-11-18T20:51:45.143Z,100272.97
2023-11-18T20:54:11.549Z,100267.72
2023-11-18T20:56:38.022Z,100256.06
2023-11-18T20:59:04.927Z,100244.75
2023-11-18T21:01:31.515Z,100240.44
2023-11-18T21:03:58.133Z,100246.28
2023-11-18T21:06:24.811Z,100243.66
2023-11-18T21:08:51.412Z,100241.03
2023-11-18T21:11:18.458Z,100225.09
2023-11-18T21:13:44.956Z,100211.03
2023-11-18T21:16:11.540Z,100205.78
2023-11-18T21:18:38.183Z,100205.78
2023-11-18T21:21:06.329Z,100203.88
2023-11-18T21:23:32.835Z,100200.31
2023-11-18T21:25:59.309Z,100202.13
2023-11-18T21:28:28.625Z,100209.13
2023-11-18T21:30:55.192Z,100203.69
2023-11-18T21:33:22.469Z,100207.25
2023-11-18T21:35:49.212Z,100214.19
2023-11-18T21:38:15.790Z,100203.69
2023-11-18T21:40:42.235Z,100202.81
2023-11-18T21:43:09.254Z,100197.47
2023-11-18T21:45:38.586Z,100179.09
2023-11-18T21:48:06.040Z,100175.53
2023-11-18T21:50:34.489Z,100171.84
2023-11-18T21:53:03.299Z,100168.59
2023-11-18T21:55:30.050Z,100172.81
2023-11-18T21:57:56.736Z,100157.88
2023-11-18T22:00:23.250Z,100156.22
2023-11-18T22:02:50.130Z,100138.78
2023-11-18T22:05:19.937Z,100130.59
2023-11-18T22:07:46.994Z,100134.78
2023-11-18T22:10:23.337Z,100136.97
2023-11-18T22:12:52.789Z,100132.88
2023-11-18T22:15:23.113Z,100114.41
2023-11-18T22:17:49.707Z,100121.00
2023-11-18T22:20:17.853Z,100121.47
2023-11-18T22:22:44.656Z,100118.97
2023-11-18T22:25:11.065Z,100122.66
2023-11-18T22:27:41.155Z,100129.69
2023-11-18T22:30:09.075Z,100132.19
2023-11-18T22:32:38.539Z,100129.47
2023-11-18T22:35:07.952Z,100130.53
2023-11-18T22:37:35.775Z,100132.41
2023-11-18T22:40:09.596Z,100125.06
2023-11-18T22:42:37.930Z,100114.09
2023-11-18T22:45:05.393Z,100116.03
2023-11-18T22:47:31.867Z,100114.31
2023-11-18T22:49:58.357Z,100107.19
2023-11-18T22:52:26.818Z,100095.00
2023-11-18T22:54:53.233Z,100103.00
2023-11-18T22:57:20.456Z,100105.94
2023-11-18T22:59:47.544Z,100093.78
2023-11-18T23:02:17.328Z,100082.66
2023-11-18T23:04:46.450Z,100082.44
2023-11-18T23:07:15.742Z,100080.56
2023-11-18T23:09:42.647Z,100074.44
2023-11-18T23:12:10.449Z,100067.53
2023-11-18T23:14:37.922Z,100081.59
2023-11-18T23:19:38.556Z,100060.84
2023-11-18T23:22:12.232Z,100048.66
2023-11-18T23:24:38.694Z,100044.47
2023-11-18T23:27:05.377Z,100033.13
2023-11-18T23:29:31.797Z,100012.75
2023-11-18T23:31:58.557Z,100013.59
2023-11-18T23:34:25.764Z,99999.72
2023-11-18T23:36:52.254Z,99990.91
2023-11-18T23:39:24.530Z,99982.41
2023-11-18T23:41:50.904Z,99964.66
2023-11-18T23:44:19.183Z,99952.03
2023-11-18T23:46:45.715Z,99945.22
2023-11-18T23:49:13.718Z,99934.84
2023-11-18T23:51:40.297Z,99917.56
2023-11-18T23:54:06.995Z,99908.81
2023-11-18T23:56:33.437Z,99908.94
2023-11-18T23:58:59.869Z,99904.53
